Tonasket, Washington
Current Conditions -  °F | °C
As of 3:53 PM on Saturday 25 Oct 2014 (Local Time) from KOMK Reporting Station
Overcast Overcast  
Wind Chill: 52°   Ceiling: 11000
Heat Index: 52°   Visibility: 10mi
Dew Point: 45°   Wind: 0mph
Humidity: 77%   Direction: NA
Pressure: 29.49"   Gusts: NA
Location:  48.71°N, 119.44°W
Report Text: KOMK 252253Z AUTO 00000KT 10SM OVC110 11/07 A2949 RMK AO2 RAB31E48 SLP991 P0000 T01110072
Loading
Personal Weather Stations






























Interactive Weather Map
Tropical Storm Tracking
New forecast layout! Learn more

10-Day Weather Forecast

Advertisements
Track Severe Weather on mobile